sensor_id;sensor_type;location;lat;lon;timestamp;pressure;altitude;pressure_sealevel;temperature;humidity
8717;BME280;4395;48.554;8.820;2023-03-24T00:01:09;94995.00;;;12.30;100.00
8717;BME280;4395;48.554;8.820;2023-03-24T00:03:12;94995.91;;;12.20;100.00
8717;BME280;4395;48.554;8.820;2023-03-24T00:05:20;95077.22;;;12.80;100.00
8717;BME280;4395;48.554;8.820;2023-03-24T00:07:25;95069.19;;;12.75;100.00
8717;BME280;4395;48.554;8.820;2023-03-24T00:09:31;95070.16;;;12.84;100.00
8717;BME280;4395;48.554;8.820;2023-03-24T00:11:34;95069.59;;;12.87;100.00
8717;BME280;4395;48.554;8.820;2023-03-24T00:13:37;95081.19;;;12.87;100.00
8717;BME280;4395;48.554;8.820;2023-03-24T00:15:40;94989.06;;;12.33;100.00
8717;BME280;4395;48.554;8.820;2023-03-24T00:17:44;94937.44;;;11.97;100.00
8717;BME280;4395;48.554;8.820;2023-03-24T00:19:47;95069.44;;;12.78;100.00
8717;BME280;4395;48.554;8.820;2023-03-24T00:21:50;95069.94;;;12.80;100.00
8717;BME280;4395;48.554;8.820;2023-03-24T00:23:57;95067.53;;;12.79;100.00
8717;BME280;4395;48.554;8.820;2023-03-24T00:26:03;95031.91;;;12.58;100.00
8717;BME280;4395;48.554;8.820;2023-03-24T00:28:07;95061.84;;;12.80;100.00
8717;BME280;4395;48.554;8.820;2023-03-24T00:30:12;95061.63;;;12.77;100.00
8717;BME280;4395;48.554;8.820;2023-03-24T00:32:15;95064.31;;;12.77;100.00
8717;BME280;4395;48.554;8.820;2023-03-24T00:34:19;95025.19;;;12.55;100.00
8717;BME280;4395;48.554;8.820;2023-03-24T00:36:25;95050.31;;;12.75;100.00
8717;BME280;4395;48.554;8.820;2023-03-24T00:38:30;95051.34;;;12.79;100.00
8717;BME280;4395;48.554;8.820;2023-03-24T00:40:36;95045.28;;;12.68;100.00
8717;BME280;4395;48.554;8.820;2023-03-24T00:42:40;94996.16;;;12.47;100.00
8717;BME280;4395;48.554;8.820;2023-03-24T00:44:46;95038.50;;;12.71;100.00
8717;BME280;4395;48.554;8.820;2023-03-24T00:46:50;95025.13;;;12.61;100.00
8717;BME280;4395;48.554;8.820;2023-03-24T00:48:59;94999.16;;;12.46;100.00
8717;BME280;4395;48.554;8.820;2023-03-24T00:51:07;94724.66;;;10.72;100.00
8717;BME280;4395;48.554;8.820;2023-03-24T00:53:11;95017.16;;;12.50;100.00
8717;BME280;4395;48.554;8.820;2023-03-24T00:55:16;95013.06;;;12.29;100.00
8717;BME280;4395;48.554;8.820;2023-03-24T00:57:21;95021.81;;;12.16;100.00
8717;BME280;4395;48.554;8.820;2023-03-24T00:59:24;95009.94;;;12.17;100.00
8717;BME280;4395;48.554;8.820;2023-03-24T01:01:32;94998.31;;;12.21;100.00
8717;BME280;4395;48.554;8.820;2023-03-24T01:03:37;95001.78;;;12.27;100.00
8717;BME280;4395;48.554;8.820;2023-03-24T01:05:48;94995.28;;;12.28;100.00
8717;BME280;4395;48.554;8.820;2023-03-24T01:07:51;94988.53;;;12.31;100.00
8717;BME280;4395;48.554;8.820;2023-03-24T01:09:57;94981.81;;;12.28;100.00
8717;BME280;4395;48.554;8.820;2023-03-24T01:12:00;94992.59;;;12.28;100.00
8717;BME280;4395;48.554;8.820;2023-03-24T01:14:05;94988.28;;;12.27;100.00
8717;BME280;4395;48.554;8.820;2023-03-24T01:16:08;94975.63;;;12.28;100.00
8717;BME280;4395;48.554;8.820;2023-03-24T01:18:12;94873.78;;;11.48;100.00
8717;BME280;4395;48.554;8.820;2023-03-24T01:20:15;94978.72;;;12.16;100.00
8717;BME280;4395;48.554;8.820;2023-03-24T01:22:19;94978.81;;;12.06;100.00
8717;BME280;4395;48.554;8.820;2023-03-24T01:24:22;94985.50;;;11.79;100.00
8717;BME280;4395;48.554;8.820;2023-03-24T01:26:27;94964.63;;;11.61;100.00
8717;BME280;4395;48.554;8.820;2023-03-24T01:28:30;94967.75;;;11.78;100.00
8717;BME280;4395;48.554;8.820;2023-03-24T01:30:34;94943.69;;;11.53;100.00
8717;BME280;4395;48.554;8.820;2023-03-24T01:32:37;94964.78;;;11.80;100.00
8717;BME280;4395;48.554;8.820;2023-03-24T01:34:40;94918.88;;;11.61;100.00
8717;BME280;4395;48.554;8.820;2023-03-24T01:36:43;94972.38;;;12.02;100.00
8717;BME280;4395;48.554;8.820;2023-03-24T01:38:46;94941.91;;;11.72;100.00
8717;BME280;4395;48.554;8.820;2023-03-24T01:40:49;94966.56;;;11.89;100.00
8717;BME280;4395;48.554;8.820;2023-03-24T01:42:53;94959.28;;;11.90;100.00
8717;BME280;4395;48.554;8.820;2023-03-24T01:44:59;94958.41;;;12.00;100.00
8717;BME280;4395;48.554;8.820;2023-03-24T01:47:06;94960.72;;;12.11;100.00
8717;BME280;4395;48.554;8.820;2023-03-24T01:49:10;94957.16;;;12.16;100.00
8717;BME280;4395;48.554;8.820;2023-03-24T01:51:16;94925.56;;;11.98;100.00
8717;BME280;4395;48.554;8.820;2023-03-24T01:53:20;94951.31;;;12.09;100.00
8717;BME280;4395;48.554;8.820;2023-03-24T01:55:23;94835.97;;;11.34;100.00
8717;BME280;4395;48.554;8.820;2023-03-24T01:57:29;94843.91;;;11.20;100.00
8717;BME280;4395;48.554;8.820;2023-03-24T01:59:37;94955.94;;;12.03;100.00
8717;BME280;4395;48.554;8.820;2023-03-24T02:02:03;94968.00;;;12.11;100.00
8717;BME280;4395;48.554;8.820;2023-03-24T02:04:15;94920.34;;;11.82;100.00
8717;BME280;4395;48.554;8.820;2023-03-24T02:06:18;94953.94;;;12.14;100.00
8717;BME280;4395;48.554;8.820;2023-03-24T02:08:30;94964.16;;;12.17;100.00
8717;BME280;4395;48.554;8.820;2023-03-24T02:10:35;94958.47;;;12.18;100.00
8717;BME280;4395;48.554;8.820;2023-03-24T02:12:39;94960.38;;;12.18;100.00
8717;BME280;4395;48.554;8.820;2023-03-24T02:14:43;94957.13;;;12.21;100.00
8717;BME280;4395;48.554;8.820;2023-03-24T02:17:13;94853.25;;;11.57;100.00
8717;BME280;4395;48.554;8.820;2023-03-24T02:24:55;94946.84;;;12.23;100.00
8717;BME280;4395;48.554;8.820;2023-03-24T02:27:12;94916.25;;;12.14;100.00
8717;BME280;4395;48.554;8.820;2023-03-24T02:29:42;94908.63;;;11.97;100.00
8717;BME280;4395;48.554;8.820;2023-03-24T02:32:15;94955.88;;;12.37;100.00
8717;BME280;4395;48.554;8.820;2023-03-24T02:34:50;94739.06;;;11.15;100.00
8717;BME280;4395;48.554;8.820;2023-03-24T02:39:54;94943.72;;;12.40;100.00
8717;BME280;4395;48.554;8.820;2023-03-24T02:42:06;94918.88;;;12.19;100.00
8717;BME280;4395;48.554;8.820;2023-03-24T02:44:19;94941.94;;;12.30;100.00
8717;BME280;4395;48.554;8.820;2023-03-24T02:46:26;94943.53;;;12.31;100.00
8717;BME280;4395;48.554;8.820;2023-03-24T02:48:35;94907.13;;;12.10;100.00
8717;BME280;4395;48.554;8.820;2023-03-24T02:50:42;94944.84;;;12.34;100.00
8717;BME280;4395;48.554;8.820;2023-03-24T02:52:49;94931.69;;;12.32;100.00
8717;BME280;4395;48.554;8.820;2023-03-24T02:54:56;94930.59;;;12.33;100.00
8717;BME280;4395;48.554;8.820;2023-03-24T02:57:05;94925.72;;;12.35;100.00
8717;BME280;4395;48.554;8.820;2023-03-24T02:59:40;94892.53;;;12.16;100.00
8717;BME280;4395;48.554;8.820;2023-03-24T03:02:11;94929.22;;;12.36;100.00
8717;BME280;4395;48.554;8.820;2023-03-24T03:04:24;94931.38;;;12.34;100.00
8717;BME280;4395;48.554;8.820;2023-03-24T03:06:32;94929.31;;;12.26;100.00
8717;BME280;4395;48.554;8.820;2023-03-24T03:08:38;94924.63;;;12.36;100.00
8717;BME280;4395;48.554;8.820;2023-03-24T03:10:45;94925.44;;;12.37;100.00
8717;BME280;4395;48.554;8.820;2023-03-24T03:12:52;94923.03;;;12.35;100.00
8717;BME280;4395;48.554;8.820;2023-03-24T03:14:59;94898.94;;;12.20;100.00
8717;BME280;4395;48.554;8.820;2023-03-24T03:17:07;94921.41;;;12.34;100.00
8717;BME280;4395;48.554;8.820;2023-03-24T03:19:16;94920.03;;;12.37;100.00
8717;BME280;4395;48.554;8.820;2023-03-24T03:21:23;94922.72;;;12.37;100.00
8717;BME280;4395;48.554;8.820;2023-03-24T03:23:31;94928.94;;;12.37;100.00
8717;BME280;4395;48.554;8.820;2023-03-24T03:25:40;94917.63;;;12.35;100.00
8717;BME280;4395;48.554;8.820;2023-03-24T03:27:50;94830.94;;;11.85;100.00
8717;BME280;4395;48.554;8.820;2023-03-24T03:29:57;94899.53;;;12.17;100.00
8717;BME280;4395;48.554;8.820;2023-03-24T03:32:04;94835.06;;;11.78;100.00
8717;BME280;4395;48.554;8.820;2023-03-24T03:34:13;94925.19;;;12.33;100.00
8717;BME280;4395;48.554;8.820;2023-03-24T03:36:23;94925.59;;;12.21;100.00
8717;BME280;4395;48.554;8.820;2023-03-24T03:38:36;94907.88;;;12.15;100.00
8717;BME280;4395;48.554;8.820;2023-03-24T03:40:48;94925.53;;;12.27;100.00
8717;BME280;4395;48.554;8.820;2023-03-24T03:42:57;94939.25;;;12.30;100.00
8717;BME280;4395;48.554;8.820;2023-03-24T03:45:00;94905.72;;;12.17;100.00
8717;BME280;4395;48.554;8.820;2023-03-24T03:47:03;94927.03;;;12.38;100.00
8717;BME280;4395;48.554;8.820;2023-03-24T03:49:13;94929.22;;;12.36;100.00
8717;BME280;4395;48.554;8.820;2023-03-24T03:51:16;94925.38;;;12.42;100.00
8717;BME280;4395;48.554;8.820;2023-03-24T03:53:29;94926.13;;;12.47;100.00
8717;BME280;4395;48.554;8.820;2023-03-24T03:55:35;94926.13;;;12.47;100.00
8717;BME280;4395;48.554;8.820;2023-03-24T03:57:39;94917.22;;;12.47;100.00
8717;BME280;4395;48.554;8.820;2023-03-24T04:00:07;94900.66;;;12.35;100.00
8717;BME280;4395;48.554;8.820;2023-03-24T04:02:33;94871.84;;;12.11;100.00
8717;BME280;4395;48.554;8.820;2023-03-24T04:07:46;94892.34;;;12.31;100.00
8717;BME280;4395;48.554;8.820;2023-03-24T04:10:22;94882.59;;;12.35;100.00
8717;BME280;4395;48.554;8.820;2023-03-24T04:12:43;94870.81;;;12.31;100.00
8717;BME280;4395;48.554;8.820;2023-03-24T04:15:34;94855.56;;;12.21;100.00
8717;BME280;4395;48.554;8.820;2023-03-24T04:18:14;94876.72;;;12.33;100.00
8717;BME280;4395;48.554;8.820;2023-03-24T04:20:36;94879.53;;;12.23;100.00
8717;BME280;4395;48.554;8.820;2023-03-24T04:22:59;94872.41;;;12.08;100.00
8717;BME280;4395;48.554;8.820;2023-03-24T04:25:12;94884.16;;;12.17;100.00
8717;BME280;4395;48.554;8.820;2023-03-24T04:27:22;94889.31;;;12.14;100.00
8717;BME280;4395;48.554;8.820;2023-03-24T04:29:33;94900.91;;;12.14;100.00
8717;BME280;4395;48.554;8.820;2023-03-24T04:31:42;94902.94;;;11.99;100.00
8717;BME280;4395;48.554;8.820;2023-03-24T04:33:51;94749.34;;;11.08;100.00
8717;BME280;4395;48.554;8.820;2023-03-24T04:36:00;94912.25;;;12.11;100.00
8717;BME280;4395;48.554;8.820;2023-03-24T04:38:25;94860.31;;;11.82;100.00
8717;BME280;4395;48.554;8.820;2023-03-24T04:40:45;94912.47;;;12.15;100.00
8717;BME280;4395;48.554;8.820;2023-03-24T04:42:51;94917.28;;;12.18;100.00
8717;BME280;4395;48.554;8.820;2023-03-24T04:45:00;94914.88;;;12.16;100.00
8717;BME280;4395;48.554;8.820;2023-03-24T04:47:23;94928.06;;;12.18;100.00
8717;BME280;4395;48.554;8.820;2023-03-24T04:49:39;94918.31;;;11.64;100.00
8717;BME280;4395;48.554;8.820;2023-03-24T04:51:43;94942.94;;;11.81;100.00
8717;BME280;4395;48.554;8.820;2023-03-24T04:53:55;94937.53;;;11.86;100.00
8717;BME280;4395;48.554;8.820;2023-03-24T04:56:15;94949.44;;;11.75;100.00
8717;BME280;4395;48.554;8.820;2023-03-24T04:58:35;94965.06;;;11.73;100.00
8717;BME280;4395;48.554;8.820;2023-03-24T05:00:38;94975.22;;;11.86;100.00
8717;BME280;4395;48.554;8.820;2023-03-24T05:02:43;94975.25;;;11.76;100.00
8717;BME280;4395;48.554;8.820;2023-03-24T05:04:52;94989.69;;;11.56;100.00
8717;BME280;4395;48.554;8.820;2023-03-24T05:07:04;94991.72;;;11.70;100.00
8717;BME280;4395;48.554;8.820;2023-03-24T05:09:07;94995.75;;;11.72;100.00
8717;BME280;4395;48.554;8.820;2023-03-24T05:11:10;94991.50;;;11.66;100.00
8717;BME280;4395;48.554;8.820;2023-03-24T05:13:20;94973.88;;;11.45;100.00
8717;BME280;4395;48.554;8.820;2023-03-24T05:15:27;95013.03;;;11.66;100.00
8717;BME280;4395;48.554;8.820;2023-03-24T05:17:42;95001.81;;;11.54;100.00
8717;BME280;4395;48.554;8.820;2023-03-24T05:19:45;94995.75;;;11.72;100.00
8717;BME280;4395;48.554;8.820;2023-03-24T05:21:48;95005.31;;;11.94;100.00
8717;BME280;4395;48.554;8.820;2023-03-24T05:23:52;95007.06;;;11.69;100.00
8717;BME280;4395;48.554;8.820;2023-03-24T05:25:55;95004.56;;;11.44;100.00
8717;BME280;4395;48.554;8.820;2023-03-24T05:28:00;95009.84;;;11.59;100.00
8717;BME280;4395;48.554;8.820;2023-03-24T05:30:05;94931.06;;;11.14;100.00
8717;BME280;4395;48.554;8.820;2023-03-24T05:32:10;94996.53;;;11.78;100.00
8717;BME280;4395;48.554;8.820;2023-03-24T05:34:15;95000.00;;;11.83;100.00
8717;BME280;4395;48.554;8.820;2023-03-24T05:36:38;94994.63;;;11.83;100.00
8717;BME280;4395;48.554;8.820;2023-03-24T05:38:42;95001.66;;;11.79;100.00
8717;BME280;4395;48.554;8.820;2023-03-24T05:40:45;95006.03;;;11.65;100.00
8717;BME280;4395;48.554;8.820;2023-03-24T05:42:48;95005.53;;;11.58;100.00
8717;BME280;4395;48.554;8.820;2023-03-24T05:44:52;95006.22;;;11.35;100.00
8717;BME280;4395;48.554;8.820;2023-03-24T05:47:00;95007.78;;;11.46;100.00
8717;BME280;4395;48.554;8.820;2023-03-24T05:49:03;95010.06;;;11.68;100.00
8717;BME280;4395;48.554;8.820;2023-03-24T05:51:11;95004.63;;;11.78;100.00
8717;BME280;4395;48.554;8.820;2023-03-24T05:53:14;94956.63;;;11.51;100.00
8717;BME280;4395;48.554;8.820;2023-03-24T05:55:44;95007.75;;;11.90;100.00
8717;BME280;4395;48.554;8.820;2023-03-24T05:58:10;95006.38;;;11.93;100.00
8717;BME280;4395;48.554;8.820;2023-03-24T06:00:23;94998.28;;;11.98;100.00
8717;BME280;4395;48.554;8.820;2023-03-24T06:02:38;95008.50;;;11.96;100.00
8717;BME280;4395;48.554;8.820;2023-03-24T06:04:55;95006.38;;;11.93;100.00
8717;BME280;4395;48.554;8.820;2023-03-24T06:07:00;95004.78;;;11.91;100.00
8717;BME280;4395;48.554;8.820;2023-03-24T06:09:06;95008.50;;;11.96;100.00
8717;BME280;4395;48.554;8.820;2023-03-24T06:11:10;95007.72;;;11.95;100.00
8717;BME280;4395;48.554;8.820;2023-03-24T06:13:23;95015.50;;;11.97;100.00
8717;BME280;4395;48.554;8.820;2023-03-24T06:15:26;95003.13;;;11.96;100.00
8717;BME280;4395;48.554;8.820;2023-03-24T06:17:37;94967.78;;;11.68;100.00
8717;BME280;4395;48.554;8.820;2023-03-24T06:19:50;95006.16;;;11.89;100.00
8717;BME280;4395;48.554;8.820;2023-03-24T06:22:06;95008.31;;;11.87;100.00
8717;BME280;4395;48.554;8.820;2023-03-24T06:24:12;95010.16;;;11.91;100.00
8717;BME280;4395;48.554;8.820;2023-03-24T06:26:16;95018.28;;;11.86;100.00
8717;BME280;4395;48.554;8.820;2023-03-24T06:28:26;95005.25;;;11.99;100.00
8717;BME280;4395;48.554;8.820;2023-03-24T06:30:33;95014.34;;;12.08;100.00
8717;BME280;4395;48.554;8.820;2023-03-24T06:32:37;95018.69;;;12.04;100.00
8717;BME280;4395;48.554;8.820;2023-03-24T06:34:40;95020.81;;;12.07;100.00
8717;BME280;4395;48.554;8.820;2023-03-24T06:37:22;95018.13;;;12.07;100.00
8717;BME280;4395;48.554;8.820;2023-03-24T06:39:25;95032.34;;;12.12;100.00
8717;BME280;4395;48.554;8.820;2023-03-24T06:41:28;95027.00;;;12.07;100.00
8717;BME280;4395;48.554;8.820;2023-03-24T06:43:34;94955.47;;;11.62;100.00
8717;BME280;4395;48.554;8.820;2023-03-24T06:45:37;95016.19;;;12.12;100.00
8717;BME280;4395;48.554;8.820;2023-03-24T06:47:44;95019.09;;;12.16;100.00
8717;BME280;4395;48.554;8.820;2023-03-24T06:49:47;95028.84;;;12.12;100.00
8717;BME280;4395;48.554;8.820;2023-03-24T06:51:50;95025.44;;;12.01;100.00
8717;BME280;4395;48.554;8.820;2023-03-24T06:53:55;95022.50;;;11.98;100.00
8717;BME280;4395;48.554;8.820;2023-03-24T06:55:57;95027.38;;;11.96;100.00
8717;BME280;4395;48.554;8.820;2023-03-24T06:58:07;95029.22;;;12.00;100.00
8717;BME280;4395;48.554;8.820;2023-03-24T07:00:20;95038.41;;;11.94;100.00
8717;BME280;4395;48.554;8.820;2023-03-24T07:02:44;95043.59;;;11.85;100.00
8717;BME280;4395;48.554;8.820;2023-03-24T07:04:47;95048.13;;;11.90;100.00
8717;BME280;4395;48.554;8.820;2023-03-24T07:07:03;95051.63;;;11.90;100.00
8717;BME280;4395;48.554;8.820;2023-03-24T07:09:46;95052.13;;;11.98;100.00
8717;BME280;4395;48.554;8.820;2023-03-24T07:11:50;95056.38;;;12.04;100.00
8717;BME280;4395;48.554;8.820;2023-03-24T07:13:53;95056.91;;;12.06;100.00
8717;BME280;4395;48.554;8.820;2023-03-24T07:15:56;95052.69;;;11.95;100.00
8717;BME280;4395;48.554;8.820;2023-03-24T07:17:59;95063.69;;;11.98;100.00
8717;BME280;4395;48.554;8.820;2023-03-24T07:20:11;95065.81;;;12.01;100.00
8717;BME280;4395;48.554;8.820;2023-03-24T07:22:14;95061.84;;;11.94;100.00
8717;BME280;4395;48.554;8.820;2023-03-24T07:24:43;95052.91;;;11.98;100.00
8717;BME280;4395;48.554;8.820;2023-03-24T07:27:12;95064.75;;;12.02;100.00
8717;BME280;4395;48.554;8.820;2023-03-24T07:29:15;95056.09;;;12.63;100.00
8717;BME280;4395;48.554;8.820;2023-03-24T07:31:44;95017.38;;;12.30;100.00
8717;BME280;4395;48.554;8.820;2023-03-24T07:33:49;95066.50;;;12.75;100.00
8717;BME280;4395;48.554;8.820;2023-03-24T07:35:55;95070.75;;;12.81;100.00
8717;BME280;4395;48.554;8.820;2023-03-24T07:38:00;95076.94;;;12.81;100.00
8717;BME280;4395;48.554;8.820;2023-03-24T07:40:03;95065.16;;;12.48;100.00
8717;BME280;4395;48.554;8.820;2023-03-24T07:42:07;95075.31;;;12.56;100.00
8717;BME280;4395;48.554;8.820;2023-03-24T07:44:30;95070.00;;;12.46;100.00
8717;BME280;4395;48.554;8.820;2023-03-24T07:46:34;95081.41;;;12.38;100.00
8717;BME280;4395;48.554;8.820;2023-03-24T07:48:37;95075.81;;;12.30;100.00
8717;BME280;4395;48.554;8.820;2023-03-24T07:50:40;95080.16;;;12.26;100.00
8717;BME280;4395;48.554;8.820;2023-03-24T07:53:03;95090.41;;;12.23;100.00
8717;BME280;4395;48.554;8.820;2023-03-24T07:55:07;95086.69;;;12.19;100.00
8717;BME280;4395;48.554;8.820;2023-03-24T07:57:33;95111.25;;;12.13;100.00
8717;BME280;4395;48.554;8.820;2023-03-24T07:59:39;95103.66;;;12.20;100.00
8717;BME280;4395;48.554;8.820;2023-03-24T08:01:51;95101.56;;;12.12;100.00
8717;BME280;4395;48.554;8.820;2023-03-24T08:04:12;95110.97;;;12.14;100.00
8717;BME280;4395;48.554;8.820;2023-03-24T08:06:33;95102.31;;;12.17;100.00
8717;BME280;4395;48.554;8.820;2023-03-24T08:08:36;95111.16;;;12.23;100.00
8717;BME280;4395;48.554;8.820;2023-03-24T08:10:39;95106.81;;;12.27;100.00
8717;BME280;4395;48.554;8.820;2023-03-24T08:12:43;95103.56;;;12.30;100.00
8717;BME280;4395;48.554;8.820;2023-03-24T08:14:47;95099.78;;;12.31;100.00
8717;BME280;4395;48.554;8.820;2023-03-24T08:16:50;95100.59;;;12.32;100.00
8717;BME280;4395;48.554;8.820;2023-03-24T08:18:52;95107.31;;;12.34;100.00
8717;BME280;4395;48.554;8.820;2023-03-24T08:20:58;95081.53;;;12.23;100.00
8717;BME280;4395;48.554;8.820;2023-03-24T08:23:02;95101.91;;;12.34;100.00
8717;BME280;4395;48.554;8.820;2023-03-24T08:25:09;95055.25;;;12.10;100.00
8717;BME280;4395;48.554;8.820;2023-03-24T08:27:12;95089.25;;;12.35;100.00
8717;BME280;4395;48.554;8.820;2023-03-24T08:29:17;95035.41;;;12.01;100.00
8717;BME280;4395;48.554;8.820;2023-03-24T08:31:21;95081.94;;;12.40;100.00
8717;BME280;4395;48.554;8.820;2023-03-24T08:33:24;95061.75;;;12.38;100.00
8717;BME280;4395;48.554;8.820;2023-03-24T08:35:30;95057.69;;;12.40;100.00
8717;BME280;4395;48.554;8.820;2023-03-24T08:37:33;95055.56;;;12.37;100.00
8717;BME280;4395;48.554;8.820;2023-03-24T08:39:36;95036.75;;;12.32;100.00
8717;BME280;4395;48.554;8.820;2023-03-24T08:41:38;95049.06;;;12.38;100.00
8717;BME280;4395;48.554;8.820;2023-03-24T08:43:41;95035.22;;;12.21;100.00
8717;BME280;4395;48.554;8.820;2023-03-24T08:45:45;95040.75;;;12.35;100.00
8717;BME280;4395;48.554;8.820;2023-03-24T08:47:50;94971.75;;;11.81;100.00
8717;BME280;4395;48.554;8.820;2023-03-24T08:49:54;95044.22;;;12.40;100.00
8717;BME280;4395;48.554;8.820;2023-03-24T08:51:58;95057.72;;;12.35;100.00
8717;BME280;4395;48.554;8.820;2023-03-24T08:54:01;95054.56;;;12.28;100.00
8717;BME280;4395;48.554;8.820;2023-03-24T08:56:04;95079.75;;;12.42;100.00
8717;BME280;4395;48.554;8.820;2023-03-24T08:58:08;95085.63;;;12.49;100.00
8717;BME280;4395;48.554;8.820;2023-03-24T09:00:16;95093.50;;;12.41;100.00
8717;BME280;4395;48.554;8.820;2023-03-24T09:02:19;95085.38;;;12.46;100.00
8717;BME280;4395;48.554;8.820;2023-03-24T09:04:23;95079.66;;;12.52;100.00
8717;BME280;4395;48.554;8.820;2023-03-24T09:06:26;95083.91;;;12.59;100.00
8717;BME280;4395;48.554;8.820;2023-03-24T09:08:29;95066.94;;;12.58;100.00
8717;BME280;4395;48.554;8.820;2023-03-24T09:10:32;95074.16;;;12.63;100.00
8717;BME280;4395;48.554;8.820;2023-03-24T09:12:36;95073.59;;;12.66;100.00
8717;BME280;4395;48.554;8.820;2023-03-24T09:14:39;95049.22;;;12.76;100.00
8717;BME280;4395;48.554;8.820;2023-03-24T09:16:42;95036.44;;;12.86;100.00
8717;BME280;4395;48.554;8.820;2023-03-24T09:18:45;95047.91;;;12.97;100.00
8717;BME280;4395;48.554;8.820;2023-03-24T09:20:49;95060.06;;;13.24;100.00
8717;BME280;4395;48.554;8.820;2023-03-24T09:22:52;95071.94;;;13.23;100.00
8717;BME280;4395;48.554;8.820;2023-03-24T09:24:56;95061.75;;;13.38;100.00
8717;BME280;4395;48.554;8.820;2023-03-24T09:26:59;95061.06;;;13.51;100.00
8717;BME280;4395;48.554;8.820;2023-03-24T09:29:01;95071.34;;;13.68;100.00
8717;BME280;4395;48.554;8.820;2023-03-24T09:31:05;95041.22;;;13.61;100.00
8717;BME280;4395;48.554;8.820;2023-03-24T09:33:08;95056.53;;;13.84;100.00
8717;BME280;4395;48.554;8.820;2023-03-24T09:35:11;95079.31;;;13.78;100.00
8717;BME280;4395;48.554;8.820;2023-03-24T09:37:15;95073.53;;;13.85;100.00
8717;BME280;4395;48.554;8.820;2023-03-24T09:39:18;95073.59;;;13.80;100.00
8717;BME280;4395;48.554;8.820;2023-03-24T09:41:24;95085.06;;;13.91;100.00
8717;BME280;4395;48.554;8.820;2023-03-24T09:43:33;95102.06;;;14.10;100.00
8717;BME280;4395;48.554;8.820;2023-03-24T09:45:43;95072.44;;;13.67;100.00
8717;BME280;4395;48.554;8.820;2023-03-24T09:47:53;95089.59;;;13.95;100.00
8717;BME280;4395;48.554;8.820;2023-03-24T09:50:01;95073.38;;;14.14;100.00
8717;BME280;4395;48.554;8.820;2023-03-24T09:52:06;95065.59;;;14.26;100.00
8717;BME280;4395;48.554;8.820;2023-03-24T09:54:13;95093.34;;;14.51;100.00
8717;BME280;4395;48.554;8.820;2023-03-24T09:56:21;95059.78;;;14.52;100.00
8717;BME280;4395;48.554;8.820;2023-03-24T09:58:28;95088.34;;;14.58;100.00
8717;BME280;4395;48.554;8.820;2023-03-24T10:00:35;95070.25;;;14.39;100.00
8717;BME280;4395;48.554;8.820;2023-03-24T10:02:38;95126.44;;;14.42;100.00
8717;BME280;4395;48.554;8.820;2023-03-24T10:04:41;95072.91;;;14.26;100.00
8717;BME280;4395;48.554;8.820;2023-03-24T10:06:45;95088.53;;;14.29;100.00
8717;BME280;4395;48.554;8.820;2023-03-24T10:09:04;95084.94;;;14.33;100.00
8717;BME280;4395;48.554;8.820;2023-03-24T10:11:16;95050.06;;;14.18;100.00
8717;BME280;4395;48.554;8.820;2023-03-24T10:13:31;95062.72;;;14.36;100.00
8717;BME280;4395;48.554;8.820;2023-03-24T10:15:42;95089.53;;;14.33;100.00
8717;BME280;4395;48.554;8.820;2023-03-24T10:17:54;95074.56;;;14.40;100.00
8717;BME280;4395;48.554;8.820;2023-03-24T10:20:03;95009.44;;;14.23;100.00
8717;BME280;4395;48.554;8.820;2023-03-24T10:22:15;95062.06;;;14.91;100.00
8717;BME280;4395;48.554;8.820;2023-03-24T10:24:25;95077.06;;;14.83;100.00
8717;BME280;4395;48.554;8.820;2023-03-24T10:26:36;95074.56;;;14.73;100.00
8717;BME280;4395;48.554;8.820;2023-03-24T10:28:49;95058.13;;;14.37;100.00
8717;BME280;4395;48.554;8.820;2023-03-24T10:30:55;95086.47;;;14.72;100.00
8717;BME280;4395;48.554;8.820;2023-03-24T10:33:01;95088.59;;;14.89;100.00
8717;BME280;4395;48.554;8.820;2023-03-24T10:35:06;95103.56;;;15.13;100.00
8717;BME280;4395;48.554;8.820;2023-03-24T10:37:12;95095.84;;;15.07;100.00
8717;BME280;4395;48.554;8.820;2023-03-24T10:39:15;95057.31;;;14.69;100.00
8717;BME280;4395;48.554;8.820;2023-03-24T10:41:26;95091.19;;;14.66;100.00
8717;BME280;4395;48.554;8.820;2023-03-24T10:43:32;95011.00;;;14.10;100.00
8717;BME280;4395;48.554;8.820;2023-03-24T10:45:36;95084.63;;;14.54;100.00
8717;BME280;4395;48.554;8.820;2023-03-24T10:47:41;95113.75;;;14.89;100.00
8717;BME280;4395;48.554;8.820;2023-03-24T10:49:52;95098.63;;;15.02;100.00
8717;BME280;4395;48.554;8.820;2023-03-24T10:52:00;95098.75;;;15.10;100.00
8717;BME280;4395;48.554;8.820;2023-03-24T10:54:11;95098.94;;;15.28;100.00
8717;BME280;4395;48.554;8.820;2023-03-24T10:56:20;95079.59;;;15.21;100.00
8717;BME280;4395;48.554;8.820;2023-03-24T10:58:40;95084.69;;;15.50;100.00
8717;BME280;4395;48.554;8.820;2023-03-24T11:00:45;95077.91;;;14.97;100.00
8717;BME280;4395;48.554;8.820;2023-03-24T11:02:54;95029.81;;;15.08;100.00
8717;BME280;4395;48.554;8.820;2023-03-24T11:05:00;95000.25;;;14.84;100.00
8717;BME280;4395;48.554;8.820;2023-03-24T11:07:09;95097.34;;;15.27;100.00
8717;BME280;4395;48.554;8.820;2023-03-24T11:09:18;95112.81;;;14.66;100.00
8717;BME280;4395;48.554;8.820;2023-03-24T11:11:29;95097.28;;;14.39;100.00
8717;BME280;4395;48.554;8.820;2023-03-24T11:13:33;95102.78;;;14.67;100.00
8717;BME280;4395;48.554;8.820;2023-03-24T11:15:51;95104.34;;;14.87;100.00
8717;BME280;4395;48.554;8.820;2023-03-24T11:17:56;95053.22;;;14.71;100.00
8717;BME280;4395;48.554;8.820;2023-03-24T11:19:59;95093.63;;;15.23;100.00
8717;BME280;4395;48.554;8.820;2023-03-24T11:22:04;95107.84;;;15.01;100.00
8717;BME280;4395;48.554;8.820;2023-03-24T11:24:10;95130.31;;;15.29;100.00
8717;BME280;4395;48.554;8.820;2023-03-24T11:26:15;95099.56;;;15.38;100.00
8717;BME280;4395;48.554;8.820;2023-03-24T11:28:24;95108.31;;;14.75;100.00
8717;BME280;4395;48.554;8.820;2023-03-24T11:30:32;95118.78;;;15.09;100.00
8717;BME280;4395;48.554;8.820;2023-03-24T11:32:44;95060.38;;;14.48;100.00
8717;BME280;4395;48.554;8.820;2023-03-24T11:34:50;95104.28;;;14.59;100.00
8717;BME280;4395;48.554;8.820;2023-03-24T11:36:59;95120.06;;;14.85;100.00
8717;BME280;4395;48.554;8.820;2023-03-24T11:39:09;95187.72;;;14.66;100.00
8717;BME280;4395;48.554;8.820;2023-03-24T11:41:14;95099.91;;;14.77;100.00